sensor_id;sensor_type;location;lat;lon;timestamp;P1;durP1;ratioP1;P2;durP2;ratioP2
1533;SDS011;760;48.822;9.304;2023-06-10T04:05:55;4.13;;;3.40;;
1533;SDS011;760;48.822;9.304;2023-06-10T04:08:22;4.43;;;3.80;;
1533;SDS011;760;48.822;9.304;2023-06-10T04:10:48;5.23;;;3.60;;
1533;SDS011;760;48.822;9.304;2023-06-10T04:13:13;3.30;;;3.00;;
1533;SDS011;760;48.822;9.304;2023-06-10T04:15:40;3.70;;;3.40;;
1533;SDS011;760;48.822;9.304;2023-06-10T04:18:06;4.73;;;4.33;;
1533;SDS011;760;48.822;9.304;2023-06-10T04:20:31;3.53;;;3.23;;
1533;SDS011;760;48.822;9.304;2023-06-10T04:22:57;4.10;;;3.80;;
1533;SDS011;760;48.822;9.304;2023-06-10T04:25:24;4.33;;;3.93;;
1533;SDS011;760;48.822;9.304;2023-06-10T04:27:51;5.20;;;3.80;;
1533;SDS011;760;48.822;9.304;2023-06-10T04:30:16;4.60;;;3.67;;
1533;SDS011;760;48.822;9.304;2023-06-10T04:32:43;3.70;;;3.30;;
1533;SDS011;760;48.822;9.304;2023-06-10T04:35:11;4.03;;;3.73;;
1533;SDS011;760;48.822;9.304;2023-06-10T04:37:37;3.83;;;3.53;;
1533;SDS011;760;48.822;9.304;2023-06-10T04:40:03;3.73;;;3.40;;
1533;SDS011;760;48.822;9.304;2023-06-10T04:42:30;3.40;;;3.20;;
1533;SDS011;760;48.822;9.304;2023-06-10T04:44:56;3.97;;;3.60;;
1533;SDS011;760;48.822;9.304;2023-06-10T04:47:22;3.43;;;3.00;;
1533;SDS011;760;48.822;9.304;2023-06-10T04:49:48;3.00;;;2.80;;
1533;SDS011;760;48.822;9.304;2023-06-10T04:52:13;2.83;;;2.63;;
1533;SDS011;760;48.822;9.304;2023-06-10T04:54:39;3.63;;;3.30;;
1533;SDS011;760;48.822;9.304;2023-06-10T04:57:05;2.87;;;2.63;;
1533;SDS011;760;48.822;9.304;2023-06-10T04:59:32;3.60;;;3.30;;
1533;SDS011;760;48.822;9.304;2023-06-10T05:01:58;4.40;;;3.10;;
1533;SDS011;760;48.822;9.304;2023-06-10T05:04:24;4.47;;;4.00;;
1533;SDS011;760;48.822;9.304;2023-06-10T05:06:49;3.97;;;3.67;;
1533;SDS011;760;48.822;9.304;2023-06-10T05:09:15;3.50;;;3.20;;
1533;SDS011;760;48.822;9.304;2023-06-10T05:11:40;3.80;;;3.50;;
1533;SDS011;760;48.822;9.304;2023-06-10T05:14:06;4.17;;;3.60;;
1533;SDS011;760;48.822;9.304;2023-06-10T05:16:32;3.97;;;3.17;;
1533;SDS011;760;48.822;9.304;2023-06-10T05:18:57;3.13;;;2.83;;
1533;SDS011;760;48.822;9.304;2023-06-10T05:21:23;2.97;;;2.67;;
1533;SDS011;760;48.822;9.304;2023-06-10T05:23:48;3.77;;;3.47;;
1533;SDS011;760;48.822;9.304;2023-06-10T05:26:14;2.63;;;2.43;;
1533;SDS011;760;48.822;9.304;2023-06-10T05:28:40;3.73;;;3.30;;
1533;SDS011;760;48.822;9.304;2023-06-10T05:31:06;3.17;;;2.80;;
1533;SDS011;760;48.822;9.304;2023-06-10T05:33:32;3.87;;;3.50;;
1533;SDS011;760;48.822;9.304;2023-06-10T05:35:57;2.90;;;2.70;;
1533;SDS011;760;48.822;9.304;2023-06-10T05:38:23;2.63;;;2.43;;
1533;SDS011;760;48.822;9.304;2023-06-10T05:40:48;2.43;;;2.33;;
1533;SDS011;760;48.822;9.304;2023-06-10T05:43:14;2.57;;;2.47;;
1533;SDS011;760;48.822;9.304;2023-06-10T05:45:41;2.53;;;2.37;;
1533;SDS011;760;48.822;9.304;2023-06-10T05:48:07;2.27;;;2.13;;
1533;SDS011;760;48.822;9.304;2023-06-10T05:50:33;2.67;;;2.30;;
1533;SDS011;760;48.822;9.304;2023-06-10T05:53:03;3.07;;;2.87;;
1533;SDS011;760;48.822;9.304;2023-06-10T05:55:29;3.37;;;2.70;;
1533;SDS011;760;48.822;9.304;2023-06-10T05:57:58;2.90;;;2.57;;
1533;SDS011;760;48.822;9.304;2023-06-10T06:00:25;2.53;;;2.40;;
1533;SDS011;760;48.822;9.304;2023-06-10T06:02:51;3.20;;;2.33;;
1533;SDS011;760;48.822;9.304;2023-06-10T06:05:17;2.30;;;2.10;;
1533;SDS011;760;48.822;9.304;2023-06-10T06:07:43;2.87;;;2.67;;
1533;SDS011;760;48.822;9.304;2023-06-10T06:10:08;2.53;;;2.33;;
1533;SDS011;760;48.822;9.304;2023-06-10T06:12:34;2.70;;;2.50;;
1533;SDS011;760;48.822;9.304;2023-06-10T06:15:00;2.27;;;2.17;;
1533;SDS011;760;48.822;9.304;2023-06-10T06:17:25;2.90;;;2.70;;
1533;SDS011;760;48.822;9.304;2023-06-10T06:19:51;2.87;;;2.30;;
1533;SDS011;760;48.822;9.304;2023-06-10T06:22:16;2.07;;;1.93;;
1533;SDS011;760;48.822;9.304;2023-06-10T06:24:46;2.37;;;2.17;;
1533;SDS011;760;48.822;9.304;2023-06-10T06:27:12;2.87;;;2.67;;
1533;SDS011;760;48.822;9.304;2023-06-10T06:29:37;2.60;;;2.40;;
1533;SDS011;760;48.822;9.304;2023-06-10T06:32:03;2.33;;;2.13;;
1533;SDS011;760;48.822;9.304;2023-06-10T06:34:29;2.00;;;1.90;;
1533;SDS011;760;48.822;9.304;2023-06-10T06:36:54;2.97;;;2.67;;
1533;SDS011;760;48.822;9.304;2023-06-10T06:39:20;2.90;;;2.70;;
1533;SDS011;760;48.822;9.304;2023-06-10T06:41:45;3.20;;;3.00;;
1533;SDS011;760;48.822;9.304;2023-06-10T06:44:11;3.20;;;2.90;;
1533;SDS011;760;48.822;9.304;2023-06-10T06:46:37;3.33;;;3.03;;
1533;SDS011;760;48.822;9.304;2023-06-10T06:49:02;2.57;;;2.37;;
1533;SDS011;760;48.822;9.304;2023-06-10T06:51:28;2.10;;;2.00;;
1533;SDS011;760;48.822;9.304;2023-06-10T06:53:53;2.60;;;2.40;;
1533;SDS011;760;48.822;9.304;2023-06-10T06:56:21;3.53;;;3.23;;
1533;SDS011;760;48.822;9.304;2023-06-10T06:58:47;2.17;;;1.97;;
1533;SDS011;760;48.822;9.304;2023-06-10T07:01:13;2.77;;;2.57;;
1533;SDS011;760;48.822;9.304;2023-06-10T07:03:40;2.67;;;2.47;;
1533;SDS011;760;48.822;9.304;2023-06-10T07:06:06;2.50;;;2.10;;
1533;SDS011;760;48.822;9.304;2023-06-10T07:08:31;2.60;;;2.40;;
1533;SDS011;760;48.822;9.304;2023-06-10T07:10:57;2.70;;;2.60;;
1533;SDS011;760;48.822;9.304;2023-06-10T07:13:22;3.30;;;2.50;;
1533;SDS011;760;48.822;9.304;2023-06-10T07:15:48;2.80;;;2.60;;
1533;SDS011;760;48.822;9.304;2023-06-10T07:18:14;2.43;;;2.33;;
1533;SDS011;760;48.822;9.304;2023-06-10T07:20:41;2.37;;;2.17;;
1533;SDS011;760;48.822;9.304;2023-06-10T07:23:06;2.40;;;2.20;;
1533;SDS011;760;48.822;9.304;2023-06-10T07:25:32;2.13;;;2.03;;
1533;SDS011;760;48.822;9.304;2023-06-10T07:27:57;2.80;;;2.40;;
1533;SDS011;760;48.822;9.304;2023-06-10T07:30:23;2.73;;;2.53;;
1533;SDS011;760;48.822;9.304;2023-06-10T07:32:48;3.43;;;3.13;;
1533;SDS011;760;48.822;9.304;2023-06-10T07:35:16;2.83;;;2.43;;
1533;SDS011;760;48.822;9.304;2023-06-10T07:37:42;2.63;;;2.43;;
1533;SDS011;760;48.822;9.304;2023-06-10T07:40:07;2.27;;;2.10;;
1533;SDS011;760;48.822;9.304;2023-06-10T07:42:34;3.67;;;3.37;;
1533;SDS011;760;48.822;9.304;2023-06-10T07:45:01;2.77;;;2.57;;
1533;SDS011;760;48.822;9.304;2023-06-10T07:47:28;3.53;;;3.33;;
1533;SDS011;760;48.822;9.304;2023-06-10T07:49:54;3.10;;;2.90;;
1533;SDS011;760;48.822;9.304;2023-06-10T07:52:20;2.47;;;2.37;;
1533;SDS011;760;48.822;9.304;2023-06-10T07:54:46;3.60;;;3.10;;
1533;SDS011;760;48.822;9.304;2023-06-10T07:57:11;3.47;;;3.17;;
1533;SDS011;760;48.822;9.304;2023-06-10T07:59:37;3.30;;;3.10;;
1533;SDS011;760;48.822;9.304;2023-06-10T08:02:03;3.97;;;3.67;;
1533;SDS011;760;48.822;9.304;2023-06-10T08:04:29;3.73;;;3.50;;
1533;SDS011;760;48.822;9.304;2023-06-10T08:06:56;3.77;;;3.47;;
1533;SDS011;760;48.822;9.304;2023-06-10T08:09:21;3.67;;;3.40;;
1533;SDS011;760;48.822;9.304;2023-06-10T08:11:48;3.50;;;3.20;;
1533;SDS011;760;48.822;9.304;2023-06-10T08:14:14;3.20;;;3.00;;
1533;SDS011;760;48.822;9.304;2023-06-10T08:16:41;3.20;;;3.00;;
1533;SDS011;760;48.822;9.304;2023-06-10T08:19:07;2.90;;;2.70;;
1533;SDS011;760;48.822;9.304;2023-06-10T08:21:34;3.13;;;2.93;;
1533;SDS011;760;48.822;9.304;2023-06-10T08:24:01;3.30;;;3.10;;
1533;SDS011;760;48.822;9.304;2023-06-10T08:26:27;3.20;;;3.00;;
1533;SDS011;760;48.822;9.304;2023-06-10T08:28:53;3.40;;;3.20;;
1533;SDS011;760;48.822;9.304;2023-06-10T08:31:20;3.43;;;3.23;;
1533;SDS011;760;48.822;9.304;2023-06-10T08:33:46;3.70;;;3.40;;
1533;SDS011;760;48.822;9.304;2023-06-10T08:36:11;3.97;;;3.73;;
1533;SDS011;760;48.822;9.304;2023-06-10T08:38:37;3.30;;;3.10;;
1533;SDS011;760;48.822;9.304;2023-06-10T08:41:03;3.00;;;2.80;;
1533;SDS011;760;48.822;9.304;2023-06-10T08:43:34;3.50;;;3.30;;
1533;SDS011;760;48.822;9.304;2023-06-10T08:46:04;3.00;;;2.80;;
1533;SDS011;760;48.822;9.304;2023-06-10T08:48:33;3.80;;;3.60;;
1533;SDS011;760;48.822;9.304;2023-06-10T08:51:00;3.40;;;3.20;;
1533;SDS011;760;48.822;9.304;2023-06-10T08:53:28;3.40;;;3.20;;
1533;SDS011;760;48.822;9.304;2023-06-10T08:55:56;4.13;;;3.83;;
1533;SDS011;760;48.822;9.304;2023-06-10T08:58:25;3.10;;;2.90;;
1533;SDS011;760;48.822;9.304;2023-06-10T09:00:53;3.47;;;3.27;;
1533;SDS011;760;48.822;9.304;2023-06-10T09:03:19;3.47;;;3.27;;
1533;SDS011;760;48.822;9.304;2023-06-10T09:05:45;3.77;;;3.57;;
1533;SDS011;760;48.822;9.304;2023-06-10T09:08:10;3.67;;;3.37;;
1533;SDS011;760;48.822;9.304;2023-06-10T09:10:36;3.20;;;3.00;;
1533;SDS011;760;48.822;9.304;2023-06-10T09:13:02;3.40;;;3.20;;
1533;SDS011;760;48.822;9.304;2023-06-10T09:15:28;3.53;;;3.30;;
1533;SDS011;760;48.822;9.304;2023-06-10T09:17:53;3.97;;;3.67;;
1533;SDS011;760;48.822;9.304;2023-06-10T09:20:19;3.30;;;3.10;;
1533;SDS011;760;48.822;9.304;2023-06-10T09:22:45;4.93;;;3.53;;
1533;SDS011;760;48.822;9.304;2023-06-10T09:25:11;3.17;;;2.97;;
1533;SDS011;760;48.822;9.304;2023-06-10T09:27:48;4.00;;;3.70;;
1533;SDS011;760;48.822;9.304;2023-06-10T09:32:52;3.47;;;3.20;;
1533;SDS011;760;48.822;9.304;2023-06-10T09:35:22;3.90;;;3.70;;
1533;SDS011;760;48.822;9.304;2023-06-10T09:37:52;3.53;;;3.33;;
1533;SDS011;760;48.822;9.304;2023-06-10T09:40:18;3.30;;;3.10;;
1533;SDS011;760;48.822;9.304;2023-06-10T09:42:44;3.57;;;3.37;;
1533;SDS011;760;48.822;9.304;2023-06-10T09:45:10;3.93;;;3.73;;
1533;SDS011;760;48.822;9.304;2023-06-10T09:47:35;3.70;;;3.50;;
1533;SDS011;760;48.822;9.304;2023-06-10T09:50:01;3.97;;;3.77;;
1533;SDS011;760;48.822;9.304;2023-06-10T09:52:28;3.60;;;3.40;;
1533;SDS011;760;48.822;9.304;2023-06-10T09:54:58;3.77;;;3.57;;
1533;SDS011;760;48.822;9.304;2023-06-10T09:57:25;3.47;;;3.27;;
1533;SDS011;760;48.822;9.304;2023-06-10T09:59:54;4.13;;;3.93;;
1533;SDS011;760;48.822;9.304;2023-06-10T10:02:20;3.83;;;3.10;;
1533;SDS011;760;48.822;9.304;2023-06-10T10:04:46;3.20;;;3.00;;
1533;SDS011;760;48.822;9.304;2023-06-10T10:07:12;3.57;;;3.37;;
1533;SDS011;760;48.822;9.304;2023-06-10T10:09:39;3.60;;;3.40;;
1533;SDS011;760;48.822;9.304;2023-06-10T10:12:12;3.60;;;3.40;;
1533;SDS011;760;48.822;9.304;2023-06-10T10:14:39;3.10;;;2.90;;
1533;SDS011;760;48.822;9.304;2023-06-10T10:17:10;4.40;;;4.10;;
1533;SDS011;760;48.822;9.304;2023-06-10T10:20:22;3.33;;;3.13;;
1533;SDS011;760;48.822;9.304;2023-06-10T10:22:38;4.07;;;3.63;;
1533;SDS011;760;48.822;9.304;2023-06-10T10:25:08;3.10;;;2.90;;
1533;SDS011;760;48.822;9.304;2023-06-10T10:27:38;3.50;;;3.20;;
1533;SDS011;760;48.822;9.304;2023-06-10T10:30:10;3.30;;;3.10;;
1533;SDS011;760;48.822;9.304;2023-06-10T10:35:34;3.97;;;3.67;;
1533;SDS011;760;48.822;9.304;2023-06-10T10:38:01;4.20;;;3.90;;
1533;SDS011;760;48.822;9.304;2023-06-10T10:40:28;4.20;;;3.97;;
1533;SDS011;760;48.822;9.304;2023-06-10T10:42:55;4.30;;;4.00;;
1533;SDS011;760;48.822;9.304;2023-06-10T10:45:21;3.63;;;3.33;;
1533;SDS011;760;48.822;9.304;2023-06-10T10:47:51;3.37;;;3.17;;
1533;SDS011;760;48.822;9.304;2023-06-10T10:50:18;4.03;;;3.73;;
1533;SDS011;760;48.822;9.304;2023-06-10T10:53:01;3.50;;;3.20;;
1533;SDS011;760;48.822;9.304;2023-06-10T10:55:28;3.60;;;3.40;;
1533;SDS011;760;48.822;9.304;2023-06-10T10:58:03;3.77;;;3.33;;
1533;SDS011;760;48.822;9.304;2023-06-10T11:00:32;4.47;;;4.07;;
1533;SDS011;760;48.822;9.304;2023-06-10T11:05:31;3.83;;;3.53;;
1533;SDS011;760;48.822;9.304;2023-06-10T11:08:01;3.47;;;3.27;;
1533;SDS011;760;48.822;9.304;2023-06-10T11:10:31;3.70;;;3.40;;
1533;SDS011;760;48.822;9.304;2023-06-10T11:13:12;3.73;;;3.47;;
1533;SDS011;760;48.822;9.304;2023-06-10T11:15:49;4.40;;;3.97;;
1533;SDS011;760;48.822;9.304;2023-06-10T11:18:34;3.20;;;3.00;;
1533;SDS011;760;48.822;9.304;2023-06-10T11:21:04;3.70;;;3.40;;
1533;SDS011;760;48.822;9.304;2023-06-10T11:23:32;3.70;;;3.40;;
1533;SDS011;760;48.822;9.304;2023-06-10T11:31:26;5.30;;;3.27;;
1533;SDS011;760;48.822;9.304;2023-06-10T11:34:02;4.10;;;3.70;;
1533;SDS011;760;48.822;9.304;2023-06-10T11:36:29;3.20;;;3.00;;
1533;SDS011;760;48.822;9.304;2023-06-10T11:38:57;3.83;;;3.63;;
1533;SDS011;760;48.822;9.304;2023-06-10T11:41:24;2.90;;;2.70;;
1533;SDS011;760;48.822;9.304;2023-06-10T11:43:53;3.07;;;2.87;;
1533;SDS011;760;48.822;9.304;2023-06-10T11:46:23;2.90;;;2.70;;
1533;SDS011;760;48.822;9.304;2023-06-10T11:48:52;3.43;;;3.23;;
1533;SDS011;760;48.822;9.304;2023-06-10T11:51:29;3.40;;;3.20;;
1533;SDS011;760;48.822;9.304;2023-06-10T11:53:57;8.00;;;3.20;;
1533;SDS011;760;48.822;9.304;2023-06-10T11:56:23;2.90;;;2.80;;
1533;SDS011;760;48.822;9.304;2023-06-10T11:58:53;3.00;;;2.70;;
1533;SDS011;760;48.822;9.304;2023-06-10T12:01:20;3.07;;;2.87;;
1533;SDS011;760;48.822;9.304;2023-06-10T12:03:47;3.47;;;3.10;;
1533;SDS011;760;48.822;9.304;2023-06-10T12:06:13;3.23;;;2.93;;
1533;SDS011;760;48.822;9.304;2023-06-10T12:08:41;3.20;;;3.00;;
1533;SDS011;760;48.822;9.304;2023-06-10T12:11:08;2.70;;;2.50;;
1533;SDS011;760;48.822;9.304;2023-06-10T12:13:34;3.23;;;3.03;;
1533;SDS011;760;48.822;9.304;2023-06-10T12:16:06;3.87;;;3.37;;
1533;SDS011;760;48.822;9.304;2023-06-10T12:18:33;2.93;;;2.73;;
1533;SDS011;760;48.822;9.304;2023-06-10T12:20:58;2.57;;;2.47;;
1533;SDS011;760;48.822;9.304;2023-06-10T12:23:24;2.90;;;2.70;;
1533;SDS011;760;48.822;9.304;2023-06-10T12:25:50;2.90;;;2.70;;
1533;SDS011;760;48.822;9.304;2023-06-10T12:28:20;3.23;;;3.03;;
1533;SDS011;760;48.822;9.304;2023-06-10T12:30:49;3.17;;;2.97;;
1533;SDS011;760;48.822;9.304;2023-06-10T12:33:18;3.10;;;2.90;;
1533;SDS011;760;48.822;9.304;2023-06-10T12:35:48;4.23;;;2.60;;
1533;SDS011;760;48.822;9.304;2023-06-10T12:38:20;3.10;;;2.90;;
1533;SDS011;760;48.822;9.304;2023-06-10T12:40:49;3.60;;;3.30;;
1533;SDS011;760;48.822;9.304;2023-06-10T12:43:22;2.90;;;2.70;;
1533;SDS011;760;48.822;9.304;2023-06-10T12:45:48;2.87;;;2.67;;
1533;SDS011;760;48.822;9.304;2023-06-10T12:48:21;2.60;;;2.40;;
1533;SDS011;760;48.822;9.304;2023-06-10T12:50:52;3.20;;;2.90;;
1533;SDS011;760;48.822;9.304;2023-06-10T12:53:19;2.97;;;2.77;;
1533;SDS011;760;48.822;9.304;2023-06-10T12:55:45;3.70;;;3.17;;
1533;SDS011;760;48.822;9.304;2023-06-10T12:58:12;2.63;;;2.43;;
1533;SDS011;760;48.822;9.304;2023-06-10T13:00:38;3.60;;;3.30;;
1533;SDS011;760;48.822;9.304;2023-06-10T13:03:04;3.83;;;3.53;;
1533;SDS011;760;48.822;9.304;2023-06-10T13:05:33;2.90;;;2.70;;
1533;SDS011;760;48.822;9.304;2023-06-10T13:08:00;2.93;;;2.50;;
1533;SDS011;760;48.822;9.304;2023-06-10T13:10:26;3.27;;;2.97;;
1533;SDS011;760;48.822;9.304;2023-06-10T13:12:52;2.50;;;2.30;;
1533;SDS011;760;48.822;9.304;2023-06-10T13:15:19;2.90;;;2.70;;
1533;SDS011;760;48.822;9.304;2023-06-10T13:17:45;2.30;;;2.10;;
1533;SDS011;760;48.822;9.304;2023-06-10T13:20:15;2.63;;;2.40;;
1533;SDS011;760;48.822;9.304;2023-06-10T13:22:41;3.70;;;2.90;;
1533;SDS011;760;48.822;9.304;2023-06-10T13:25:07;3.20;;;3.00;;
1533;SDS011;760;48.822;9.304;2023-06-10T13:27:34;2.63;;;2.43;;
1533;SDS011;760;48.822;9.304;2023-06-10T13:30:00;3.03;;;2.73;;
1533;SDS011;760;48.822;9.304;2023-06-10T13:32:26;4.53;;;2.50;;
1533;SDS011;760;48.822;9.304;2023-06-10T13:34:51;2.87;;;2.67;;
1533;SDS011;760;48.822;9.304;2023-06-10T13:37:18;2.60;;;2.40;;
1533;SDS011;760;48.822;9.304;2023-06-10T13:39:44;2.70;;;2.50;;
1533;SDS011;760;48.822;9.304;2023-06-10T13:42:13;2.47;;;2.27;;
1533;SDS011;760;48.822;9.304;2023-06-10T13:44:39;2.40;;;2.30;;
1533;SDS011;760;48.822;9.304;2023-06-10T13:47:05;3.23;;;3.03;;
1533;SDS011;760;48.822;9.304;2023-06-10T13:49:31;2.80;;;2.60;;
1533;SDS011;760;48.822;9.304;2023-06-10T13:51:57;2.70;;;2.50;;
1533;SDS011;760;48.822;9.304;2023-06-10T13:54:22;3.37;;;3.03;;
1533;SDS011;760;48.822;9.304;2023-06-10T13:56:48;2.93;;;2.73;;
1533;SDS011;760;48.822;9.304;2023-06-10T13:59:14;3.03;;;2.70;;
1533;SDS011;760;48.822;9.304;2023-06-10T14:01:39;2.90;;;2.70;;
1533;SDS011;760;48.822;9.304;2023-06-10T14:04:06;2.87;;;2.67;;
1533;SDS011;760;48.822;9.304;2023-06-10T14:06:32;3.13;;;2.93;;
1533;SDS011;760;48.822;9.304;2023-06-10T14:08:58;2.70;;;2.50;;
1533;SDS011;760;48.822;9.304;2023-06-10T14:11:27;2.80;;;2.60;;
1533;SDS011;760;48.822;9.304;2023-06-10T14:13:53;3.37;;;3.07;;
1533;SDS011;760;48.822;9.304;2023-06-10T14:16:21;3.10;;;2.60;;
1533;SDS011;760;48.822;9.304;2023-06-10T14:18:46;3.10;;;2.90;;
1533;SDS011;760;48.822;9.304;2023-06-10T14:21:12;3.50;;;3.20;;
1533;SDS011;760;48.822;9.304;2023-06-10T14:23:38;2.93;;;2.63;;
1533;SDS011;760;48.822;9.304;2023-06-10T14:26:03;3.20;;;2.90;;
1533;SDS011;760;48.822;9.304;2023-06-10T14:28:31;3.13;;;2.93;;
1533;SDS011;760;48.822;9.304;2023-06-10T14:30:56;3.10;;;2.90;;
1533;SDS011;760;48.822;9.304;2023-06-10T14:33:22;3.33;;;2.87;;
1533;SDS011;760;48.822;9.304;2023-06-10T14:35:48;2.60;;;2.43;;
1533;SDS011;760;48.822;9.304;2023-06-10T14:38:13;3.07;;;2.87;;
1533;SDS011;760;48.822;9.304;2023-06-10T14:40:39;4.33;;;2.73;;
1533;SDS011;760;48.822;9.304;2023-06-10T14:43:05;3.40;;;3.20;;
1533;SDS011;760;48.822;9.304;2023-06-10T14:45:38;3.90;;;3.60;;
1533;SDS011;760;48.822;9.304;2023-06-10T14:48:05;3.10;;;2.90;;
1533;SDS011;760;48.822;9.304;2023-06-10T14:50:32;3.40;;;3.20;;
1533;SDS011;760;48.822;9.304;2023-06-10T14:52:59;3.27;;;3.07;;
1533;SDS011;760;48.822;9.304;2023-06-10T14:55:25;3.90;;;3.60;;
1533;SDS011;760;48.822;9.304;2023-06-10T14:57:51;3.87;;;3.57;;
1533;SDS011;760;48.822;9.304;2023-06-10T15:00:16;2.70;;;2.57;;
1533;SDS011;760;48.822;9.304;2023-06-10T15:02:47;3.33;;;3.00;;
1533;SDS011;760;48.822;9.304;2023-06-10T15:05:13;3.13;;;2.93;;
1533;SDS011;760;48.822;9.304;2023-06-10T15:07:40;3.60;;;3.30;;
1533;SDS011;760;48.822;9.304;2023-06-10T15:10:06;2.90;;;2.70;;
1533;SDS011;760;48.822;9.304;2023-06-10T15:12:32;3.60;;;3.30;;
1533;SDS011;760;48.822;9.304;2023-06-10T15:14:57;3.63;;;3.33;;
1533;SDS011;760;48.822;9.304;2023-06-10T15:17:23;3.07;;;2.87;;
1533;SDS011;760;48.822;9.304;2023-06-10T15:19:48;3.23;;;2.97;;
1533;SDS011;760;48.822;9.304;2023-06-10T15:22:14;3.40;;;3.20;;
1533;SDS011;760;48.822;9.304;2023-06-10T15:24:39;3.43;;;3.13;;
1533;SDS011;760;48.822;9.304;2023-06-10T15:27:05;3.10;;;2.90;;
1533;SDS011;760;48.822;9.304;2023-06-10T15:29:31;2.80;;;2.60;;
1533;SDS011;760;48.822;9.304;2023-06-10T15:31:57;2.27;;;2.17;;
1533;SDS011;760;48.822;9.304;2023-06-10T15:34:22;2.73;;;2.53;;
1533;SDS011;760;48.822;9.304;2023-06-10T15:36:48;2.27;;;2.07;;
1533;SDS011;760;48.822;9.304;2023-06-10T15:39:14;2.63;;;2.47;;
1533;SDS011;760;48.822;9.304;2023-06-10T15:41:39;2.47;;;2.27;;
1533;SDS011;760;48.822;9.304;2023-06-10T15:44:05;2.50;;;2.30;;
1533;SDS011;760;48.822;9.304;2023-06-10T15:46:31;2.80;;;2.60;;
1533;SDS011;760;48.822;9.304;2023-06-10T15:48:57;2.50;;;2.30;;
1533;SDS011;760;48.822;9.304;2023-06-10T15:51:23;2.67;;;2.47;;
1533;SDS011;760;48.822;9.304;2023-06-10T15:53:48;2.77;;;2.57;;
1533;SDS011;760;48.822;9.304;2023-06-10T15:56:15;2.63;;;2.43;;
1533;SDS011;760;48.822;9.304;2023-06-10T15:58:40;2.80;;;2.60;;
1533;SDS011;760;48.822;9.304;2023-06-10T16:01:06;3.27;;;2.13;;
1533;SDS011;760;48.822;9.304;2023-06-10T16:03:34;2.60;;;2.40;;
1533;SDS011;760;48.822;9.304;2023-06-10T16:05:59;2.80;;;2.60;;
1533;SDS011;760;48.822;9.304;2023-06-10T16:08:25;2.80;;;2.60;;
1533;SDS011;760;48.822;9.304;2023-06-10T16:10:51;2.40;;;2.30;;
1533;SDS011;760;48.822;9.304;2023-06-10T16:13:16;2.07;;;1.97;;
1533;SDS011;760;48.822;9.304;2023-06-10T16:15:42;2.10;;;1.90;;
1533;SDS011;760;48.822;9.304;2023-06-10T16:18:07;2.63;;;2.47;;
1533;SDS011;760;48.822;9.304;2023-06-10T16:20:33;2.73;;;2.43;;
1533;SDS011;760;48.822;9.304;2023-06-10T16:23:00;2.37;;;2.27;;
1533;SDS011;760;48.822;9.304;2023-06-10T16:25:30;2.30;;;2.10;;
1533;SDS011;760;48.822;9.304;2023-06-10T16:27:56;2.63;;;2.43;;
1533;SDS011;760;48.822;9.304;2023-06-10T16:30:22;2.37;;;2.27;;
1533;SDS011;760;48.822;9.304;2023-06-10T16:32:48;2.33;;;2.13;;
1533;SDS011;760;48.822;9.304;2023-06-10T16:35:14;2.47;;;2.30;;
1533;SDS011;760;48.822;9.304;2023-06-10T16:37:40;2.30;;;2.10;;
1533;SDS011;760;48.822;9.304;2023-06-10T16:40:05;2.70;;;2.50;;
1533;SDS011;760;48.822;9.304;2023-06-10T16:42:31;2.23;;;2.03;;
1533;SDS011;760;48.822;9.304;2023-06-10T16:44:57;3.13;;;2.90;;
1533;SDS011;760;48.822;9.304;2023-06-10T16:47:23;2.50;;;2.30;;
1533;SDS011;760;48.822;9.304;2023-06-10T16:49:49;1.93;;;1.80;;
1533;SDS011;760;48.822;9.304;2023-06-10T16:52:15;2.90;;;2.70;;
1533;SDS011;760;48.822;9.304;2023-06-10T16:54:40;2.40;;;2.20;;
1533;SDS011;760;48.822;9.304;2023-06-10T16:57:06;2.40;;;2.20;;
1533;SDS011;760;48.822;9.304;2023-06-10T16:59:32;2.10;;;1.93;;
1533;SDS011;760;48.822;9.304;2023-06-10T17:01:58;2.00;;;1.90;;
1533;SDS011;760;48.822;9.304;2023-06-10T17:04:23;2.70;;;2.50;;
1533;SDS011;760;48.822;9.304;2023-06-10T17:06:49;2.33;;;2.10;;
1533;SDS011;760;48.822;9.304;2023-06-10T17:09:15;2.33;;;2.17;;
1533;SDS011;760;48.822;9.304;2023-06-10T17:11:41;2.13;;;2.00;;
1533;SDS011;760;48.822;9.304;2023-06-10T17:14:07;2.27;;;2.10;;
1533;SDS011;760;48.822;9.304;2023-06-10T17:16:33;2.33;;;2.00;;
1533;SDS011;760;48.822;9.304;2023-06-10T17:18:59;2.70;;;2.13;;
1533;SDS011;760;48.822;9.304;2023-06-10T17:21:24;2.00;;;1.90;;
1533;SDS011;760;48.822;9.304;2023-06-10T17:23:50;2.80;;;2.50;;
1533;SDS011;760;48.822;9.304;2023-06-10T17:26:16;3.70;;;3.40;;
1533;SDS011;760;48.822;9.304;2023-06-10T17:28:42;2.53;;;2.33;;
1533;SDS011;760;48.822;9.304;2023-06-10T17:31:07;2.00;;;1.90;;
1533;SDS011;760;48.822;9.304;2023-06-10T17:33:33;1.97;;;1.87;;
1533;SDS011;760;48.822;9.304;2023-06-10T17:35:58;2.83;;;2.63;;
1533;SDS011;760;48.822;9.304;2023-06-10T17:38:24;2.47;;;2.37;;
1533;SDS011;760;48.822;9.304;2023-06-10T17:40:49;2.37;;;2.17;;
1533;SDS011;760;48.822;9.304;2023-06-10T17:43:15;3.20;;;2.90;;
1533;SDS011;760;48.822;9.304;2023-06-10T17:45:40;2.73;;;2.53;;
1533;SDS011;760;48.822;9.304;2023-06-10T17:48:06;2.80;;;2.60;;
1533;SDS011;760;48.822;9.304;2023-06-10T17:50:32;2.70;;;2.50;;
1533;SDS011;760;48.822;9.304;2023-06-10T17:52:57;2.47;;;2.30;;
1533;SDS011;760;48.822;9.304;2023-06-10T17:55:23;2.53;;;2.30;;
1533;SDS011;760;48.822;9.304;2023-06-10T17:57:48;2.90;;;2.70;;
1533;SDS011;760;48.822;9.304;2023-06-10T18:00:14;2.37;;;2.27;;
1533;SDS011;760;48.822;9.304;2023-06-10T18:02:40;2.63;;;2.47;;
1533;SDS011;760;48.822;9.304;2023-06-10T18:05:06;2.63;;;2.43;;
1533;SDS011;760;48.822;9.304;2023-06-10T18:07:31;2.30;;;2.17;;
1533;SDS011;760;48.822;9.304;2023-06-10T18:09:57;2.53;;;2.33;;
1533;SDS011;760;48.822;9.304;2023-06-10T18:12:23;3.03;;;2.77;;
1533;SDS011;760;48.822;9.304;2023-06-10T18:14:48;2.37;;;2.27;;
1533;SDS011;760;48.822;9.304;2023-06-10T18:17:14;2.30;;;2.20;;
1533;SDS011;760;48.822;9.304;2023-06-10T18:19:40;2.90;;;2.70;;
1533;SDS011;760;48.822;9.304;2023-06-10T18:22:06;1.80;;;1.73;;
1533;SDS011;760;48.822;9.304;2023-06-10T18:24:31;3.17;;;2.97;;
1533;SDS011;760;48.822;9.304;2023-06-10T18:26:57;2.97;;;2.40;;
1533;SDS011;760;48.822;9.304;2023-06-10T18:29:25;2.70;;;2.47;;
1533;SDS011;760;48.822;9.304;2023-06-10T18:31:51;2.07;;;1.97;;
1533;SDS011;760;48.822;9.304;2023-06-10T18:34:17;2.40;;;2.30;;
1533;SDS011;760;48.822;9.304;2023-06-10T18:36:42;3.03;;;2.83;;
1533;SDS011;760;48.822;9.304;2023-06-10T18:39:08;1.70;;;1.60;;
1533;SDS011;760;48.822;9.304;2023-06-10T18:41:33;2.53;;;2.13;;
1533;SDS011;760;48.822;9.304;2023-06-10T18:43:59;2.80;;;2.60;;
1533;SDS011;760;48.822;9.304;2023-06-10T18:46:25;1.60;;;1.50;;
1533;SDS011;760;48.822;9.304;2023-06-10T18:48:50;2.30;;;2.20;;
1533;SDS011;760;48.822;9.304;2023-06-10T18:51:16;1.87;;;1.77;;
1533;SDS011;760;48.822;9.304;2023-06-10T18:53:42;1.97;;;1.87;;
1533;SDS011;760;48.822;9.304;2023-06-10T18:56:07;2.60;;;2.17;;
1533;SDS011;760;48.822;9.304;2023-06-10T18:58:33;3.00;;;2.70;;
1533;SDS011;760;48.822;9.304;2023-06-10T19:01:02;2.10;;;1.90;;
1533;SDS011;760;48.822;9.304;2023-06-10T19:03:28;2.40;;;2.30;;
1533;SDS011;760;48.822;9.304;2023-06-10T19:05:55;2.83;;;2.63;;
1533;SDS011;760;48.822;9.304;2023-06-10T19:08:24;3.20;;;3.00;;
1533;SDS011;760;48.822;9.304;2023-06-10T19:10:53;4.03;;;3.73;;
1533;SDS011;760;48.822;9.304;2023-06-10T19:13:19;2.07;;;1.97;;
1533;SDS011;760;48.822;9.304;2023-06-10T19:15:45;2.87;;;2.63;;
1533;SDS011;760;48.822;9.304;2023-06-10T19:18:10;4.40;;;3.13;;
1533;SDS011;760;48.822;9.304;2023-06-10T19:20:36;2.70;;;2.50;;
1533;SDS011;760;48.822;9.304;2023-06-10T19:23:04;2.63;;;2.53;;
1533;SDS011;760;48.822;9.304;2023-06-10T19:25:30;2.73;;;2.53;;
1533;SDS011;760;48.822;9.304;2023-06-10T19:27:55;1.77;;;1.67;;
1533;SDS011;760;48.822;9.304;2023-06-10T19:30:21;2.57;;;2.37;;
1533;SDS011;760;48.822;9.304;2023-06-10T19:32:47;2.70;;;2.47;;
1533;SDS011;760;48.822;9.304;2023-06-10T19:35:12;4.77;;;4.33;;
1533;SDS011;760;48.822;9.304;2023-06-10T19:37:38;2.40;;;2.23;;
1533;SDS011;760;48.822;9.304;2023-06-10T19:40:04;2.87;;;2.10;;
1533;SDS011;760;48.822;9.304;2023-06-10T19:42:31;2.23;;;2.13;;
1533;SDS011;760;48.822;9.304;2023-06-10T19:44:57;2.20;;;2.10;;